Time;durP1;ratioP1;P1;durP2;ratioP2;P2;SDS_P1;SDS_P2;PMS_P1;PMS_P2;Temp;Humidity;BMP_temperature;BMP_pressure;BME280_temperature;BME280_humidity;BME280_pressure;Samples;Min_cycle;Max_cycle;Signal;HPM_P1;HPM_P2
2022/02/15 00:01:36;;;;;;;11.85;4.22;;;;;;;7.74;100.00;100571.56;5252415;28;20411;-72
2022/02/15 00:04:08;;;;;;;14.45;5.97;;;;;;;7.74;100.00;100580.22;5251060;28;20111;-71
2022/02/15 00:06:39;;;;;;;11.98;4.97;;;;;;;7.67;100.00;100573.81;5251842;28;20465;-71
2022/02/15 00:09:11;;;;;;;9.55;4.57;;;;;;;7.65;100.00;100572.25;5250096;28;20500;-70
2022/02/15 00:11:42;;;;;;;9.70;4.43;;;;;;;7.57;100.00;100572.84;5251761;28;20032;-70
2022/02/15 00:14:13;;;;;;;12.35;4.95;;;;;;;7.54;100.00;100573.09;5251106;28;20407;-71
2022/02/15 00:16:44;;;;;;;8.88;4.28;;;;;;;7.52;100.00;100569.75;5251492;28;20056;-70
2022/02/15 00:19:17;;;;;;;7.22;4.20;;;;;;;7.48;100.00;100570.94;5251945;28;20025;-71
2022/02/15 00:21:48;;;;;;;9.23;4.10;;;;;;;7.46;100.00;100573.69;5250775;28;20049;-71
2022/02/15 00:24:20;;;;;;;9.43;3.83;;;;;;;7.44;100.00;100577.34;5251773;28;20036;-72
2022/02/15 00:26:51;;;;;;;9.27;4.43;;;;;;;7.39;100.00;100584.69;5252274;28;20230;-71
2022/02/15 00:29:22;;;;;;;7.93;4.15;;;;;;;7.34;100.00;100585.00;5250708;28;20067;-71
2022/02/15 00:31:53;;;;;;;10.27;4.63;;;;;;;7.32;100.00;100592.94;5251209;28;20021;-71
2022/02/15 00:34:25;;;;;;;8.50;4.10;;;;;;;7.26;100.00;100601.22;5250331;28;20059;-72
2022/02/15 00:36:56;;;;;;;10.13;4.68;;;;;;;7.24;100.00;100600.53;5252046;28;20512;-72
2022/02/15 00:39:28;;;;;;;9.68;4.90;;;;;;;7.23;100.00;100608.44;5251591;28;20036;-71
2022/02/15 00:41:59;;;;;;;9.88;4.82;;;;;;;7.19;100.00;100604.41;5250573;28;20067;-71
2022/02/15 00:44:34;;;;;;;8.00;4.30;;;;;;;7.17;100.00;100612.34;5250752;28;20036;-71
2022/02/15 00:47:05;;;;;;;10.88;5.90;;;;;;;7.12;100.00;100611.84;5251696;28;20082;-72
2022/02/15 00:49:37;;;;;;;7.95;4.63;;;;;;;7.10;100.00;100608.53;5251973;28;20025;-73
2022/02/15 00:52:08;;;;;;;7.88;4.45;;;;;;;7.00;100.00;100599.72;5249886;28;20025;-71
2022/02/15 00:54:40;;;;;;;9.88;4.75;;;;;;;7.01;100.00;100615.25;5250082;28;20132;-72
2022/02/15 00:57:11;;;;;;;10.23;4.72;;;;;;;6.96;100.00;100619.13;5250764;28;20028;-71
2022/02/15 00:59:43;;;;;;;9.50;4.43;;;;;;;6.95;100.00;100625.28;5250864;28;20320;-71
2022/02/15 01:02:14;;;;;;;7.88;4.50;;;;;;;6.94;100.00;100628.84;5250491;28;20079;-71
2022/02/15 01:04:45;;;;;;;10.35;5.07;;;;;;;6.96;100.00;100621.72;5250715;28;20032;-71
2022/02/15 01:07:16;;;;;;;11.88;5.38;;;;;;;6.96;100.00;100632.16;5250778;28;20124;-72
2022/02/15 01:09:48;;;;;;;8.50;4.53;;;;;;;6.96;100.00;100632.97;5244522;28;20040;-70
2022/02/15 01:12:19;;;;;;;11.73;5.40;;;;;;;6.97;100.00;100642.47;5249819;28;20111;-71
2022/02/15 01:14:51;;;;;;;10.18;4.93;;;;;;;6.97;100.00;100637.25;5249490;28;20041;-72
2022/02/15 01:17:22;;;;;;;11.10;4.88;;;;;;;7.03;100.00;100642.00;5248786;28;20962;-72
2022/02/15 01:19:54;;;;;;;7.97;4.57;;;;;;;6.90;100.00;100623.03;5246801;28;20029;-72
2022/02/15 01:22:25;;;;;;;8.65;4.95;;;;;;;6.95;100.00;100633.91;5249509;28;20029;-72
2022/02/15 01:24:56;;;;;;;7.70;4.43;;;;;;;6.94;100.00;100637.47;5252606;28;20032;-71
2022/02/15 01:27:28;;;;;;;8.52;5.20;;;;;;;6.93;100.00;100640.19;5250503;28;20029;-72
2022/02/15 01:29:59;;;;;;;10.93;5.55;;;;;;;6.90;100.00;100643.84;5249216;28;20032;-72
2022/02/15 01:32:31;;;;;;;10.35;5.40;;;;;;;6.92;100.00;100646.34;5250039;28;20024;-71
2022/02/15 01:35:03;;;;;;;11.65;5.95;;;;;;;6.91;100.00;100650.72;5250735;28;20044;-71
2022/02/15 01:37:35;;;;;;;10.63;5.50;;;;;;;6.90;100.00;100651.66;5249219;28;20500;-73
2022/02/15 01:40:07;;;;;;;11.63;5.55;;;;;;;6.92;100.00;100661.97;5249580;28;20264;-71
2022/02/15 01:42:38;;;;;;;11.98;5.65;;;;;;;6.92;100.00;100652.38;5248657;28;20410;-71
2022/02/15 01:45:12;;;;;;;12.30;6.20;;;;;;;6.95;100.00;100656.53;5250450;28;20039;-71
2022/02/15 01:47:45;;;;;;;10.52;5.85;;;;;;;6.97;100.00;100658.09;5244783;28;20415;-72
2022/02/15 01:50:17;;;;;;;9.60;5.93;;;;;;;6.97;100.00;100667.66;5249799;28;20360;-72
2022/02/15 01:52:48;;;;;;;8.35;5.47;;;;;;;6.94;100.00;100666.13;5251195;28;20398;-72
2022/02/15 01:55:20;;;;;;;16.73;6.85;;;;;;;6.92;100.00;100664.56;5250467;28;20032;-71
2022/02/15 01:57:51;;;;;;;13.30;6.88;;;;;;;6.90;100.00;100671.69;5249204;28;20115;-73
2022/02/15 02:00:22;;;;;;;13.32;7.15;;;;;;;6.89;100.00;100670.81;5249527;28;20021;-71
2022/02/15 02:02:54;;;;;;;8.70;6.28;;;;;;;6.90;100.00;100666.47;5250369;28;20029;-72
2022/02/15 02:08:17;;;;;;;14.63;7.03;;;;;;;6.87;100.00;100672.72;5257382;28;20402;-72
2022/02/15 02:10:49;;;;;;;;;;;;;;;7.39;100.00;100675.91;5232640;28;20060;-71
2022/02/15 02:13:21;;;;;;;11.95;8.13;;;;;;;6.93;100.00;100684.44;5256385;28;19916;-71
2022/02/15 02:15:53;;;;;;;12.93;7.85;;;;;;;6.88;100.00;100679.56;5253628;28;20513;-71
2022/02/15 02:18:25;;;;;;;12.45;8.30;;;;;;;6.87;100.00;100677.91;5256693;28;20064;-72
2022/02/15 02:21:01;;;;;;;11.20;8.35;;;;;;;6.92;100.00;100678.41;5253743;28;20087;-71
2022/02/15 02:23:32;;;;;;;14.73;8.50;;;;;;;6.85;100.00;100674.59;5253358;28;20028;-71
2022/02/15 02:26:04;;;;;;;16.48;9.05;;;;;;;6.86;100.00;100681.47;5254366;28;20739;-72
2022/02/15 02:28:36;;;;;;;11.32;8.18;;;;;;;6.88;100.00;100679.56;5256251;28;20039;-71
2022/02/15 02:31:08;;;;;;;12.23;7.90;;;;;;;6.85;100.00;100678.97;5256637;28;20029;-71
2022/02/15 02:33:39;;;;;;;13.57;8.73;;;;;;;6.88;100.00;100687.38;5255127;28;20025;-71
2022/02/15 02:36:10;;;;;;;15.02;8.55;;;;;;;6.87;100.00;100684.91;5243454;28;20044;-73
2022/02/15 02:38:42;;;;;;;14.73;8.63;;;;;;;6.85;100.00;100692.81;5251609;28;20060;-71
2022/02/15 02:41:13;;;;;;;19.05;8.88;;;;;;;6.86;100.00;100693.63;5254986;28;20378;-71
2022/02/15 02:43:44;;;;;;;12.95;9.13;;;;;;;6.87;100.00;100693.56;5258958;28;20453;-71
2022/02/15 02:46:15;;;;;;;12.65;8.07;;;;;;;6.88;100.00;100689.16;5256778;28;20017;-71
2022/02/15 02:48:47;;;;;;;14.35;8.55;;;;;;;6.86;100.00;100691.03;5258305;28;20517;-71
2022/02/15 02:51:18;;;;;;;12.88;9.07;;;;;;;6.87;100.00;100705.75;5259823;28;20425;-70
2022/02/15 02:53:49;;;;;;;15.32;8.40;;;;;;;6.86;100.00;100704.91;5258243;28;20032;-71
2022/02/15 02:56:21;;;;;;;12.35;8.25;;;;;;;6.85;100.00;100699.78;5235445;28;20040;-72
2022/02/15 02:58:52;;;;;;;13.70;8.88;;;;;;;6.83;100.00;100698.13;5257531;28;20095;-71
2022/02/15 03:01:23;;;;;;;12.35;8.18;;;;;;;6.83;100.00;100707.72;5242228;28;20023;-71
2022/02/15 03:03:54;;;;;;;14.15;8.48;;;;;;;6.87;100.00;100708.34;5256881;28;20059;-72
2022/02/15 03:06:27;;;;;;;14.00;8.68;;;;;;;6.82;100.00;100706.91;5256156;28;20025;-72
2022/02/15 03:08:59;;;;;;;16.20;9.32;;;;;;;6.83;100.00;100705.94;5256455;28;20115;-71
2022/02/15 03:11:31;;;;;;;13.15;8.85;;;;;;;6.80;100.00;100713.16;5258474;28;20078;-71
2022/02/15 03:14:02;;;;;;;13.98;9.02;;;;;;;6.80;100.00;100713.97;5256591;28;20602;-70
2022/02/15 03:16:34;;;;;;;12.18;9.15;;;;;;;6.78;100.00;100723.69;5257416;28;20268;-72
2022/02/15 03:19:05;;;;;;;11.77;8.80;;;;;;;6.79;100.00;100724.50;5259017;28;20032;-71
2022/02/15 03:21:37;;;;;;;14.25;9.50;;;;;;;6.76;100.00;100729.94;5246399;28;20053;-71
2022/02/15 03:24:09;;;;;;;15.80;9.40;;;;;;;6.71;100.00;100725.06;5260346;28;20016;-71
2022/02/15 03:26:42;;;;;;;13.85;9.00;;;;;;;6.76;100.00;100729.94;5257086;28;20032;-70
2022/02/15 03:29:14;;;;;;;13.52;9.15;;;;;;;6.70;100.00;100725.97;5237170;28;20474;-71
2022/02/15 03:31:45;;;;;;;14.88;8.65;;;;;;;6.71;100.00;100732.03;5255294;28;20036;-70
2022/02/15 03:34:17;;;;;;;13.88;8.80;;;;;;;6.72;100.00;100738.91;5255529;28;20017;-73
2022/02/15 03:36:48;;;;;;;12.50;9.00;;;;;;;6.71;100.00;100738.06;5256077;28;20150;-71
2022/02/15 03:39:19;;;;;;;15.65;9.20;;;;;;;6.71;100.00;100740.69;5257651;28;20024;-71
2022/02/15 03:44:40;;;;;;;13.40;9.02;;;;;;;6.66;100.00;100752.34;5259117;28;20040;-71
2022/02/15 03:47:12;;;;;;;15.10;8.68;;;;;;;6.70;100.00;100753.78;5258077;28;20017;-73
2022/02/15 03:49:43;;;;;;;11.00;8.30;;;;;;;6.67;100.00;100754.03;5257948;28;20517;-72
2022/02/15 03:52:14;;;;;;;12.05;9.18;;;;;;;6.62;100.00;100754.31;5258307;28;20052;-73
2022/02/15 03:54:46;;;;;;;13.95;9.07;;;;;;;6.59;100.00;100754.53;5241474;28;20068;-73
2022/02/15 03:57:17;;;;;;;15.80;9.48;;;;;;;6.57;100.00;100767.66;5255998;28;20085;-71
2022/02/15 03:59:48;;;;;;;15.13;9.35;;;;;;;6.59;100.00;100777.94;5255765;28;20449;-72
2022/02/15 04:02:19;;;;;;;11.32;8.90;;;;;;;6.60;100.00;100773.59;5255444;28;20060;-70
2022/02/15 04:04:51;;;;;;;17.85;9.10;;;;;;;6.62;100.00;100779.53;5256207;28;20500;-72
2022/02/15 04:07:22;;;;;;;14.27;9.23;;;;;;;6.62;100.00;100775.16;5258166;28;20643;-72
2022/02/15 04:09:53;;;;;;;12.93;9.15;;;;;;;6.60;100.00;100784.84;5255911;28;20444;-72
2022/02/15 04:12:24;;;;;;;12.55;9.18;;;;;;;6.57;100.00;100785.88;5258545;28;20393;-71
2022/02/15 04:14:56;;;;;;;11.88;8.65;;;;;;;6.58;100.00;100797.13;5255407;28;20391;-72
2022/02/15 04:17:27;;;;;;;13.48;9.38;;;;;;;6.53;100.00;100789.63;5257348;28;20349;-71
2022/02/15 04:19:58;;;;;;;14.65;9.88;;;;;;;6.50;100.00;100791.63;5255554;28;20043;-71
2022/02/15 04:22:30;;;;;;;12.30;9.30;;;;;;;6.48;100.00;100796.09;5256963;28;20127;-72
2022/02/15 04:25:02;;;;;;;13.40;9.63;;;;;;;6.49;100.00;100803.81;5257641;28;20082;-71
2022/02/15 04:27:34;;;;;;;14.77;9.53;;;;;;;6.51;100.00;100812.31;5245574;28;20025;-70
2022/02/15 04:30:06;;;;;;;14.35;9.50;;;;;;;6.46;100.00;100809.22;5256608;28;20028;-70
2022/02/15 04:32:37;;;;;;;12.15;9.35;;;;;;;6.49;100.00;100815.97;5255601;28;20575;-72
2022/02/15 04:35:09;;;;;;;15.38;9.77;;;;;;;6.51;100.00;100827.09;5257640;28;20029;-72
2022/02/15 04:37:40;;;;;;;11.90;9.75;;;;;;;6.51;100.00;100827.09;5257389;28;20033;-71
2022/02/15 04:40:12;;;;;;;13.15;10.13;;;;;;;6.50;100.00;100820.25;5255284;28;20032;-71
2022/02/15 04:42:44;;;;;;;14.80;9.65;;;;;;;6.53;100.00;100830.44;5257158;28;20029;-71
2022/02/15 04:45:15;;;;;;;12.77;9.65;;;;;;;6.55;100.00;100834.63;5257937;28;20052;-71
2022/02/15 04:47:46;;;;;;;13.65;9.88;;;;;;;6.56;100.00;100838.88;5255215;28;20021;-71
2022/02/15 04:50:18;;;;;;;15.15;9.75;;;;;;;6.58;100.00;100829.19;5255833;28;20032;-71
2022/02/15 04:52:49;;;;;;;12.32;9.52;;;;;;;6.59;100.00;100837.81;5254428;28;20035;-72
2022/02/15 04:55:20;;;;;;;14.00;8.98;;;;;;;6.63;100.00;100843.66;5255243;28;20036;-72
2022/02/15 04:57:52;;;;;;;12.35;9.23;;;;;;;6.63;100.00;100833.25;5254722;28;20039;-71
2022/02/15 05:00:23;;;;;;;12.77;9.55;;;;;;;6.63;100.00;100836.72;5254729;28;20538;-71
2022/02/15 05:02:54;;;;;;;15.32;9.95;;;;;;;6.66;100.00;100843.44;5254397;28;20031;-71
2022/02/15 05:05:26;;;;;;;13.25;9.77;;;;;;;6.67;100.00;100842.53;5254561;28;20068;-71
2022/02/15 05:07:57;;;;;;;12.90;10.07;;;;;;;6.69;100.00;100848.44;5252975;28;20032;-71
2022/02/15 05:10:29;;;;;;;12.32;10.40;;;;;;;6.65;100.00;100837.41;5254675;28;20243;-71
2022/02/15 05:13:01;;;;;;;12.82;9.85;;;;;;;6.68;100.00;100844.19;5256673;28;20028;-71
2022/02/15 05:15:32;;;;;;;15.85;10.65;;;;;;;6.69;100.00;100845.84;5256039;28;20478;-70
2022/02/15 05:18:05;;;;;;;18.60;10.98;;;;;;;6.68;100.00;100845.03;5254863;28;20032;-72
2022/02/15 05:20:36;;;;;;;14.20;10.73;;;;;;;6.70;100.00;100847.50;5256325;28;20115;-72
2022/02/15 05:23:07;;;;;;;17.52;11.82;;;;;;;6.70;100.00;100856.16;5254235;28;20458;-70
2022/02/15 05:25:39;;;;;;;15.90;10.95;;;;;;;6.72;100.00;100862.09;5255164;28;20033;-71
2022/02/15 05:28:10;;;;;;;15.00;11.52;;;;;;;6.76;100.00;100868.75;5244050;28;20044;-71
2022/02/15 05:30:41;;;;;;;17.55;11.88;;;;;;;6.73;100.00;100855.13;5250954;28;20052;-71
2022/02/15 05:33:13;;;;;;;15.93;11.95;;;;;;;6.72;100.00;100863.88;5253509;28;20021;-72
2022/02/15 05:35:44;;;;;;;16.95;11.88;;;;;;;6.70;100.00;100857.91;5254801;28;20067;-72
2022/02/15 05:38:15;;;;;;;16.88;11.90;;;;;;;6.73;100.00;100868.13;5255855;28;20059;-71
2022/02/15 05:40:47;;;;;;;19.02;11.77;;;;;;;6.74;100.00;100861.97;5256713;28;20191;-71
2022/02/15 05:43:18;;;;;;;19.50;12.60;;;;;;;6.72;100.00;100869.91;5258048;28;20116;-72
2022/02/15 05:45:49;;;;;;;16.80;12.13;;;;;;;6.71;100.00;100870.03;5255578;28;20032;-74
2022/02/15 05:48:21;;;;;;;17.30;11.55;;;;;;;6.73;100.00;100871.56;5253924;28;20038;-71
2022/02/15 05:50:55;;;;;;;14.98;11.52;;;;;;;6.71;100.00;100860.44;5254654;28;20033;-71
2022/02/15 05:53:28;;;;;;;19.10;11.55;;;;;;;6.74;100.00;100868.03;5254029;28;20058;-71
2022/02/15 05:56:01;;;;;;;;;;;;;;;7.18;100.00;100869.31;5254881;28;20047;-72
2022/02/15 05:58:33;;;;;;;17.33;12.27;;;;;;;6.78;100.00;100877.31;5255473;28;19920;-71
2022/02/15 06:01:06;;;;;;;21.55;12.63;;;;;;;6.75;100.00;100867.09;5230681;28;20031;-71
2022/02/15 06:06:27;;;;;;;16.75;12.38;;;;;;;6.78;100.00;100872.09;5255333;28;19913;-72
2022/02/15 06:09:00;;;;;;;17.77;12.60;;;;;;;6.78;100.00;100873.84;5255319;28;20556;-71
2022/02/15 06:11:31;;;;;;;17.67;12.57;;;;;;;6.80;100.00;100874.59;5254973;28;20029;-70
2022/02/15 06:14:03;;;;;;;19.05;12.73;;;;;;;6.79;100.00;100883.34;5255656;28;20512;-73
2022/02/15 06:16:35;;;;;;;21.30;14.43;;;;;;;6.79;100.00;100885.94;5256409;28;20108;-72
2022/02/15 06:19:07;;;;;;;19.00;13.77;;;;;;;6.81;100.00;100884.06;5260014;28;20083;-71
2022/02/15 06:21:39;;;;;;;21.98;15.48;;;;;;;6.78;100.00;100881.66;5259740;28;20532;-72
2022/02/15 06:24:10;;;;;;;17.77;13.55;;;;;;;6.80;100.00;100891.03;5259506;28;20024;-70
2022/02/15 06:26:41;;;;;;;19.85;14.30;;;;;;;6.83;100.00;100887.41;5259026;28;20057;-71
2022/02/15 06:29:13;;;;;;;22.73;13.90;;;;;;;6.81;100.00;100891.88;5259432;28;20025;-71
2022/02/15 06:31:44;;;;;;;22.20;15.35;;;;;;;6.82;100.00;100889.19;5259161;28;20024;-71
2022/02/15 06:34:15;;;;;;;24.35;16.35;;;;;;;6.85;100.00;100903.75;5257734;28;20864;-71
2022/02/15 06:36:47;;;;;;;20.88;15.80;;;;;;;6.83;100.00;100897.81;5258115;28;20017;-72
2022/02/15 06:39:18;;;;;;;20.10;15.40;;;;;;;6.83;100.00;100903.84;5258928;28;20389;-71
2022/02/15 06:41:50;;;;;;;24.40;17.30;;;;;;;6.79;100.00;100905.00;5256958;28;20368;-71
2022/02/15 06:44:21;;;;;;;24.42;15.55;;;;;;;6.83;100.00;100910.84;5259173;28;20048;-72
2022/02/15 06:46:52;;;;;;;18.90;14.75;;;;;;;6.83;100.00;100910.84;5256541;28;20079;-71
2022/02/15 06:49:23;;;;;;;22.42;13.50;;;;;;;6.88;100.00;100919.16;5258615;28;20529;-70
2022/02/15 06:51:55;;;;;;;19.25;14.27;;;;;;;6.88;100.00;100916.56;5251108;28;20492;-72
2022/02/15 06:54:27;;;;;;;18.35;14.10;;;;;;;6.72;100.00;100927.19;5259630;28;20405;-72
2022/02/15 06:56:58;;;;;;;20.95;15.55;;;;;;;6.69;100.00;100934.38;5254130;28;20036;-71
2022/02/15 06:59:30;;;;;;;17.90;14.70;;;;;;;6.66;100.00;100935.41;5254072;28;20028;-74
2022/02/15 07:02:01;;;;;;;17.83;14.10;;;;;;;6.81;100.00;100931.75;5245308;28;20491;-72
2022/02/15 07:04:33;;;;;;;19.38;13.95;;;;;;;6.87;100.00;100935.72;5240596;28;20108;-70
2022/02/15 07:07:04;;;;;;;17.75;13.30;;;;;;;6.85;100.00;100932.38;5253179;28;20498;-71
2022/02/15 07:09:35;;;;;;;16.35;12.93;;;;;;;6.86;100.00;100943.63;5258463;28;20033;-72
2022/02/15 07:12:08;;;;;;;15.60;11.93;;;;;;;6.87;100.00;100946.16;5257651;28;20146;-72
2022/02/15 07:14:40;;;;;;;14.77;11.88;;;;;;;6.91;100.00;100939.78;5252565;28;20548;-72
2022/02/15 07:17:11;;;;;;;16.75;11.63;;;;;;;6.92;100.00;100956.25;5255189;28;20033;-72
2022/02/15 07:19:42;;;;;;;17.95;11.52;;;;;;;6.90;100.00;100961.56;5252222;28;20020;-72
2022/02/15 07:22:14;;;;;;;17.20;11.73;;;;;;;6.92;100.00;100964.91;5251161;28;20045;-72
2022/02/15 07:24:45;;;;;;;17.67;12.00;;;;;;;6.88;100.00;100958.22;5248933;28;20033;-72
2022/02/15 07:27:16;;;;;;;14.82;11.55;;;;;;;6.90;100.00;100961.56;5250332;28;20093;-73
2022/02/15 07:29:48;;;;;;;17.55;12.98;;;;;;;6.90;100.00;100968.56;5250628;28;20714;-73
2022/02/15 07:32:23;;;;;;;18.77;13.65;;;;;;;6.90;100.00;100974.59;5252284;28;20049;-73
2022/02/15 07:34:56;;;;;;;18.42;13.07;;;;;;;6.92;100.00;100983.13;5252763;28;20024;-72
2022/02/15 07:37:28;;;;;;;19.77;14.90;;;;;;;6.95;100.00;100985.53;5253632;28;20091;-72
2022/02/15 07:40:00;;;;;;;24.35;16.23;;;;;;;6.93;100.00;100991.78;5251131;28;20035;-72
2022/02/15 07:42:31;;;;;;;19.35;14.65;;;;;;;6.96;100.00;100989.78;5251525;28;20021;-72
2022/02/15 07:45:03;;;;;;;19.95;16.25;;;;;;;6.97;100.00;100991.50;5251014;28;20059;-74
2022/02/15 07:47:35;;;;;;;20.90;15.10;;;;;;;7.00;100.00;100993.03;5250302;28;20032;-71
2022/02/15 07:50:06;;;;;;;20.77;16.52;;;;;;;7.00;100.00;100996.47;5250266;28;20033;-72
2022/02/15 07:52:37;;;;;;;22.48;16.15;;;;;;;7.00;100.00;100998.25;5248831;28;20556;-71
2022/02/15 07:55:09;;;;;;;22.40;15.80;;;;;;;7.04;100.00;101003.13;5251240;28;20052;-71
2022/02/15 07:57:41;;;;;;;18.35;14.57;;;;;;;7.04;100.00;101003.13;5246986;28;20247;-72
2022/02/15 08:00:18;;;;;;;20.58;14.32;;;;;;;7.05;100.00;101015.25;5250858;28;20116;-72
2022/02/15 08:02:51;;;;;;;22.48;14.45;;;;;;;7.03;100.00;101024.91;5230563;28;20040;-74
2022/02/15 08:05:23;;;;;;;;;;;;;;;7.54;100.00;101021.50;5248738;28;20024;-72
2022/02/15 08:07:57;;;;;;;23.02;14.80;;;;;;;7.12;100.00;101025.22;5250331;28;20024;-72
2022/02/15 08:10:28;;;;;;;16.60;12.65;;;;;;;7.11;100.00;101023.56;5250169;28;20029;-72
2022/02/15 08:13:01;;;;;;;14.13;11.50;;;;;;;7.04;100.00;101021.38;5251781;28;20557;-73
2022/02/15 08:15:36;;;;;;;16.80;11.85;;;;;;;7.04;100.00;101023.97;5251377;28;20117;-71
2022/02/15 08:18:08;;;;;;;22.50;12.10;;;;;;;7.10;100.00;101027.13;5250054;28;20489;-74
2022/02/15 08:20:39;;;;;;;22.08;11.20;;;;;;;7.16;100.00;101026.69;5251817;28;20028;-72
2022/02/15 08:23:10;;;;;;;19.67;10.95;;;;;;;7.14;100.00;101016.38;5253062;28;20017;-72
2022/02/15 08:25:41;;;;;;;22.42;11.35;;;;;;;7.23;100.00;101022.72;5252388;28;20025;-72
2022/02/15 08:28:14;;;;;;;22.27;10.13;;;;;;;7.28;100.00;101034.53;5253015;28;20674;-71
2022/02/15 08:30:45;;;;;;;17.50;10.55;;;;;;;7.32;100.00;101025.56;5253488;28;20025;-71
2022/02/15 08:33:17;;;;;;;16.20;9.70;;;;;;;7.32;100.00;101024.72;5252640;28;20359;-71
2022/02/15 08:35:48;;;;;;;19.73;10.35;;;;;;;7.33;100.00;101036.81;5251505;28;20020;-71
2022/02/15 08:38:19;;;;;;;23.17;9.60;;;;;;;7.34;100.00;101043.69;5253020;28;20055;-71
2022/02/15 08:40:50;;;;;;;17.00;9.40;;;;;;;7.35;100.00;101041.91;5249684;28;20488;-72
2022/02/15 08:43:22;;;;;;;16.70;9.13;;;;;;;7.36;100.00;101035.78;5249463;28;20107;-72
2022/02/15 08:45:53;;;;;;;17.48;9.00;;;;;;;7.40;100.00;101042.44;5249117;28;20033;-72
2022/02/15 08:48:26;;;;;;;18.48;8.90;;;;;;;7.45;100.00;101043.78;5249131;28;20033;-71
2022/02/15 08:50:57;;;;;;;12.20;7.43;;;;;;;7.45;100.00;101040.34;5250068;28;20490;-73
2022/02/15 08:53:28;;;;;;;14.40;7.63;;;;;;;7.44;100.00;101052.56;5249180;28;20029;-71
2022/02/15 08:56:00;;;;;;;13.20;7.07;;;;;;;7.39;100.00;101046.84;5250428;28;20474;-72
2022/02/15 08:58:32;;;;;;;17.17;6.63;;;;;;;7.38;100.00;101045.16;5250697;28;20025;-72
2022/02/15 09:01:03;;;;;;;17.02;7.45;;;;;;;7.48;100.00;101038.38;5251553;28;20473;-71
2022/02/15 09:03:35;;;;;;;17.48;7.15;;;;;;;7.61;100.00;101047.94;5249090;28;20037;-72
2022/02/15 09:06:07;;;;;;;11.48;6.28;;;;;;;7.67;100.00;101057.97;5242370;28;20946;-73
2022/02/15 09:08:38;;;;;;;16.63;6.15;;;;;;;7.74;100.00;101049.63;5246862;28;20046;-72
2022/02/15 09:11:10;;;;;;;13.75;6.43;;;;;;;7.82;100.00;101048.25;5249758;28;20385;-72
2022/02/15 09:13:42;;;;;;;14.07;5.30;;;;;;;7.83;100.00;101050.75;5248890;28;20051;-71
2022/02/15 09:16:13;;;;;;;11.18;5.10;;;;;;;7.89;100.00;101054.72;5249393;28;20086;-73
2022/02/15 09:18:44;;;;;;;12.05;5.10;;;;;;;8.00;100.00;101060.84;5249005;28;20032;-73
2022/02/15 09:21:16;;;;;;;11.48;4.50;;;;;;;7.98;100.00;101057.50;5248801;28;20045;-71
2022/02/15 09:23:47;;;;;;;11.68;4.60;;;;;;;7.73;100.00;101058.38;5249116;28;20029;-73
2022/02/15 09:26:19;;;;;;;13.77;4.22;;;;;;;7.72;100.00;101061.09;5249138;28;20025;-72
2022/02/15 09:28:50;;;;;;;15.38;5.22;;;;;;;7.67;100.00;101055.38;5248912;28;20864;-70
2022/02/15 09:31:22;;;;;;;9.65;3.85;;;;;;;7.71;100.00;101059.41;5248862;28;20030;-71
2022/02/15 09:33:53;;;;;;;9.27;4.60;;;;;;;7.76;100.00;101073.78;5249092;28;20028;-72
2022/02/15 09:36:25;;;;;;;11.82;4.97;;;;;;;7.80;100.00;101069.19;5250272;28;20044;-72
2022/02/15 09:38:57;;;;;;;12.63;5.60;;;;;;;7.80;100.00;101072.69;5249254;28;20025;-72
2022/02/15 09:41:33;;;;;;;14.13;5.50;;;;;;;7.72;100.00;101085.38;5250705;28;20037;-71
2022/02/15 09:44:06;;;;;;;12.00;5.80;;;;;;;7.65;100.00;101084.16;5249581;28;20504;-72
2022/02/15 09:46:42;;;;;;;18.50;6.10;;;;;;;7.57;100.00;101083.81;5250753;28;20029;-71
2022/02/15 09:52:04;;;;;;;14.48;6.75;;;;;;;7.61;100.00;101079.25;5251752;28;20076;-71
2022/02/15 09:54:37;;;;;;;15.50;6.70;;;;;;;7.60;100.00;101086.22;5252218;28;20037;-71
2022/02/15 09:57:09;;;;;;;13.07;6.47;;;;;;;7.84;100.00;101088.09;5249831;28;20021;-72
2022/02/15 09:59:41;;;;;;;9.77;6.47;;;;;;;7.95;100.00;101096.00;5250903;28;20162;-73
2022/02/15 10:02:17;;;;;;;17.13;8.02;;;;;;;7.95;100.00;101085.56;5251064;28;20043;-71
2022/02/15 10:04:52;;;;;;;17.30;8.02;;;;;;;7.99;100.00;101085.25;5250678;28;20089;-71
2022/02/15 10:07:24;;;;;;;13.32;7.85;;;;;;;7.87;100.00;101078.28;5250529;28;20027;-71
2022/02/15 10:09:59;;;;;;;14.30;7.53;;;;;;;7.80;100.00;101082.25;5251167;28;20093;-72
2022/02/15 10:12:31;;;;;;;14.57;7.50;;;;;;;7.86;100.00;101076.63;5248488;28;20437;-71
2022/02/15 10:15:08;;;;;;;11.13;7.27;;;;;;;7.95;100.00;101077.75;5250846;28;20028;-71
2022/02/15 10:17:43;;;;;;;16.80;8.32;;;;;;;8.09;100.00;101076.78;5247448;28;20483;-71
2022/02/15 10:20:24;;;;;;;14.65;7.75;;;;;;;8.32;100.00;101075.97;5250648;28;20120;-72
2022/02/15 10:23:14;;;;;;;11.82;7.50;;;;;;;8.54;100.00;101080.53;5249410;28;20495;-72
2022/02/15 10:25:48;;;;;;;12.98;7.40;;;;;;;8.39;100.00;101087.69;5250609;28;20036;-73
2022/02/15 10:28:21;;;;;;;;;;;;;;;8.67;100.00;101102.16;5249777;28;20032;-71
2022/02/15 10:31:01;;;;;;;6.90;5.30;;;;;;;8.49;100.00;101096.53;5250549;28;20381;-71
2022/02/15 10:33:40;;;;;;;10.27;4.63;;;;;;;8.46;100.00;101098.53;5249477;28;20819;-72
2022/02/15 10:36:13;;;;;;;6.50;4.25;;;;;;;8.39;100.00;101077.22;5248587;28;20029;-72
2022/02/15 10:38:53;;;;;;;8.93;4.07;;;;;;;8.54;100.00;101090.97;5249409;28;20400;-72
2022/02/15 10:41:32;;;;;;;12.25;4.85;;;;;;;8.56;100.00;101077.78;5247827;28;20406;-72
2022/02/15 10:44:05;;;;;;;5.78;4.38;;;;;;;8.72;100.00;101086.19;5249572;28;20122;-72
2022/02/15 10:46:39;;;;;;;7.75;4.55;;;;;;;8.90;100.00;101077.00;5246592;28;20329;-72
2022/02/15 10:49:10;;;;;;;10.52;4.60;;;;;;;9.07;100.00;101072.28;5247854;28;20314;-72
2022/02/15 10:51:42;;;;;;;10.38;3.13;;;;;;;9.14;100.00;101073.50;5241862;28;20021;-72
2022/02/15 10:54:13;;;;;;;8.85;2.95;;;;;;;9.35;100.00;101084.09;5249214;28;20127;-72
2022/02/15 10:56:47;;;;;;;8.30;2.65;;;;;;;9.30;97.38;101074.00;5249146;28;20441;-72
2022/02/15 10:59:22;;;;;;;7.38;2.30;;;;;;;9.41;98.27;101079.25;5248684;28;20037;-72
2022/02/15 11:01:54;;;;;;;8.52;2.10;;;;;;;9.50;99.04;101070.69;5247990;28;20032;-71
2022/02/15 11:04:29;;;;;;;7.45;1.80;;;;;;;9.72;97.57;101063.81;5243797;28;20021;-72
2022/02/15 11:07:05;;;;;;;6.82;1.80;;;;;;;9.63;94.02;101067.16;5251143;28;20033;-71
2022/02/15 11:09:43;;;;;;;7.07;2.15;;;;;;;9.73;93.95;101052.38;5246041;28;20667;-72
2022/02/15 11:12:35;;;;;;;6.03;1.65;;;;;;;9.97;93.95;101052.28;5251759;28;20021;-73
2022/02/15 11:15:07;;;;;;;6.03;1.52;;;;;;;10.08;92.02;101044.41;5252185;28;20402;-73
2022/02/15 11:17:51;;;;;;;7.35;1.50;;;;;;;10.18;91.16;101047.09;5250787;28;20028;-73
2022/02/15 11:20:29;;;;;;;8.02;1.80;;;;;;;9.91;88.20;101035.25;5250767;28;20083;-72
2022/02/15 11:23:01;;;;;;;4.38;1.77;;;;;;;9.96;87.49;101046.22;5251160;28;20037;-72
2022/02/15 11:25:41;;;;;;;9.52;2.05;;;;;;;9.88;87.04;101061.66;5251444;28;20078;-72
2022/02/15 11:28:15;;;;;;;4.70;1.35;;;;;;;9.77;87.96;101050.38;5251643;28;20067;-72
2022/02/15 11:31:00;;;;;;;5.18;1.40;;;;;;;9.60;85.87;101060.38;5251180;28;20024;-71
2022/02/15 11:33:37;;;;;;;8.15;1.65;;;;;;;9.59;86.87;101050.03;5252569;28;20286;-72
2022/02/15 11:36:15;;;;;;;6.78;1.45;;;;;;;9.45;86.43;101056.31;5252967;28;20017;-72
2022/02/15 11:38:51;;;;;;;5.30;1.33;;;;;;;9.61;85.28;101037.66;5253638;28;20117;-72
2022/02/15 11:41:25;;;;;;;5.13;1.67;;;;;;;9.47;86.18;101031.72;5252025;28;20561;-72
2022/02/15 11:43:59;;;;;;;3.13;1.25;;;;;;;9.60;85.49;101026.38;5253001;28;20390;-73
2022/02/15 11:46:32;;;;;;;4.40;1.73;;;;;;;9.64;85.25;101030.41;5251629;28;20349;-72
2022/02/15 11:49:11;;;;;;;5.07;1.60;;;;;;;9.76;83.57;101028.59;5250385;28;20386;-72
2022/02/15 11:51:44;;;;;;;4.05;1.38;;;;;;;9.82;83.98;101028.13;5252702;28;20379;-72
2022/02/15 11:54:18;;;;;;;8.40;1.27;;;;;;;9.94;84.14;101027.16;5249960;28;20486;-72